createdAt,value
2023-04-26T00:01:06.174Z,98388.16
2023-04-26T00:03:35.438Z,98387.61
2023-04-26T00:06:09.516Z,98393.20
2023-04-26T00:08:37.989Z,98391.81
2023-04-26T00:11:06.910Z,98393.50
2023-04-26T00:13:35.857Z,98394.73
2023-04-26T00:16:05.465Z,98392.30
2023-04-26T00:18:34.675Z,98396.75
2023-04-26T00:21:06.212Z,98397.94
2023-04-26T00:23:36.941Z,98400.14
2023-04-26T00:26:05.853Z,98399.77
2023-04-26T00:28:34.550Z,98403.83
2023-04-26T00:31:04.301Z,98403.46
2023-04-26T00:33:33.357Z,98405.27
2023-04-26T00:36:02.138Z,98404.35
2023-04-26T00:38:32.055Z,98405.47
2023-04-26T00:41:01.683Z,98405.98
2023-04-26T00:43:30.715Z,98406.49
2023-04-26T00:45:59.446Z,98406.85
2023-04-26T00:48:28.600Z,98407.45
2023-04-26T00:50:57.443Z,98406.97
2023-04-26T00:53:27.499Z,98411.30
2023-04-26T00:55:56.595Z,98414.66
2023-04-26T00:58:26.332Z,98416.55
2023-04-26T01:00:54.849Z,98416.30
2023-04-26T01:03:23.911Z,98414.65
2023-04-26T01:05:53.551Z,98415.31
2023-04-26T01:08:23.991Z,98420.02
2023-04-26T01:10:53.684Z,98418.02
2023-04-26T01:13:22.345Z,98421.56
2023-04-26T01:15:51.659Z,98417.79
2023-04-26T01:18:22.614Z,98422.76
2023-04-26T01:20:53.438Z,98422.71
2023-04-26T01:23:21.761Z,98423.52
2023-04-26T01:25:50.416Z,98429.75
2023-04-26T01:28:19.825Z,98427.16
2023-04-26T01:30:48.342Z,98427.39
2023-04-26T01:33:17.828Z,98430.05
2023-04-26T01:35:46.577Z,98428.51
2023-04-26T01:38:16.445Z,98430.96
2023-04-26T01:40:46.452Z,98436.52
2023-04-26T01:43:15.907Z,98441.89
2023-04-26T01:45:50.513Z,98444.59
2023-04-26T01:48:31.721Z,98446.67
2023-04-26T01:51:03.489Z,98442.14
2023-04-26T01:53:32.487Z,98441.77
2023-04-26T01:56:02.908Z,98442.58
2023-04-26T01:58:32.770Z,98440.81
2023-04-26T02:01:08.921Z,98437.32
2023-04-26T02:03:39.023Z,98439.84
2023-04-26T02:06:08.117Z,98441.85
2023-04-26T02:08:36.862Z,98445.13
2023-04-26T02:11:05.703Z,98442.34
2023-04-26T02:13:34.674Z,98449.84
2023-04-26T02:16:03.841Z,98452.88
2023-04-26T02:18:32.571Z,98455.74
2023-04-26T02:21:01.295Z,98450.89
2023-04-26T02:23:29.734Z,98453.69
2023-04-26T02:25:58.460Z,98450.42
2023-04-26T02:28:27.456Z,98449.27
2023-04-26T02:31:00.438Z,98451.01
2023-04-26T02:33:30.674Z,98449.70
2023-04-26T02:35:59.779Z,98449.53
2023-04-26T02:38:28.574Z,98448.23
2023-04-26T02:41:00.024Z,98447.52
2023-04-26T02:43:28.654Z,98451.92
2023-04-26T02:45:59.513Z,98444.90
2023-04-26T02:48:28.965Z,98447.21
2023-04-26T02:50:58.341Z,98449.34
2023-04-26T02:53:27.188Z,98448.21
2023-04-26T02:55:57.226Z,98446.06
2023-04-26T02:58:25.652Z,98450.16
2023-04-26T03:00:55.132Z,98451.50
2023-04-26T03:03:24.946Z,98459.44
2023-04-26T03:05:53.922Z,98456.79
2023-04-26T03:08:23.421Z,98453.48
2023-04-26T03:10:51.902Z,98457.13
2023-04-26T03:13:22.909Z,98462.02
2023-04-26T03:15:53.165Z,98465.77
2023-04-26T03:18:23.438Z,98466.36
2023-04-26T03:20:52.664Z,98465.54
2023-04-26T03:23:24.957Z,98469.45
2023-04-26T03:25:54.389Z,98474.41
2023-04-26T03:28:23.488Z,98478.67
2023-04-26T03:30:52.163Z,98477.47
2023-04-26T03:33:21.781Z,98484.25
2023-04-26T03:35:51.829Z,98485.55
2023-04-26T03:38:20.655Z,98490.11
2023-04-26T03:40:49.870Z,98491.60
2023-04-26T03:43:18.340Z,98492.55
2023-04-26T03:45:50.762Z,98491.63
2023-04-26T03:48:19.263Z,98498.60
2023-04-26T03:50:47.943Z,98502.11
2023-04-26T03:53:16.897Z,98499.42
2023-04-26T03:55:45.855Z,98502.46
2023-04-26T03:58:15.449Z,98506.45
2023-04-26T04:00:44.831Z,98507.30
2023-04-26T04:03:13.872Z,98512.92
2023-04-26T04:05:42.506Z,98509.18
2023-04-26T04:08:11.886Z,98518.45
2023-04-26T04:10:40.296Z,98522.02
2023-04-26T04:13:09.077Z,98518.96
2023-04-26T04:15:38.593Z,98517.92
2023-04-26T04:18:07.305Z,98523.63
2023-04-26T04:20:35.801Z,98520.91
2023-04-26T04:23:06.957Z,98524.90
2023-04-26T04:25:36.949Z,98529.96
2023-04-26T04:28:09.694Z,98533.13
2023-04-26T04:30:38.280Z,98534.64
2023-04-26T04:33:07.405Z,98538.81
2023-04-26T04:35:37.113Z,98541.80
2023-04-26T04:38:07.632Z,98544.26
2023-04-26T04:40:36.305Z,98544.88
2023-04-26T04:43:05.333Z,98541.05
2023-04-26T04:45:35.871Z,98539.84
2023-04-26T04:48:05.540Z,98539.05
2023-04-26T04:50:34.439Z,98542.88
2023-04-26T04:53:04.063Z,98545.27
2023-04-26T04:55:32.765Z,98544.62
2023-04-26T04:58:02.143Z,98552.42
2023-04-26T05:00:31.177Z,98552.86
2023-04-26T05:03:23.334Z,98553.59
2023-04-26T05:05:53.219Z,98552.59
2023-04-26T05:08:22.177Z,98554.68
2023-04-26T05:10:51.234Z,98560.19
2023-04-26T05:13:19.797Z,98567.05
2023-04-26T05:15:48.302Z,98562.66
2023-04-26T05:18:17.348Z,98567.63
2023-04-26T05:20:46.104Z,98567.23
2023-04-26T05:23:14.616Z,98566.48
2023-04-26T05:25:44.268Z,98567.91
2023-04-26T05:28:31.939Z,98566.67
2023-04-26T05:31:15.489Z,98567.84
2023-04-26T05:33:54.402Z,98570.22
2023-04-26T05:36:37.013Z,98575.54
2023-04-26T05:39:06.893Z,98576.91
2023-04-26T05:41:35.349Z,98581.84
2023-04-26T05:44:04.640Z,98589.02
2023-04-26T05:46:34.306Z,98585.86
2023-04-26T05:49:02.861Z,98587.73
2023-04-26T05:51:31.874Z,98584.95
2023-04-26T05:54:01.158Z,98583.20
2023-04-26T05:56:30.082Z,98584.62
2023-04-26T05:58:59.122Z,98593.44
2023-04-26T06:01:28.111Z,98599.46
2023-04-26T06:03:59.810Z,98601.36
2023-04-26T06:06:33.144Z,98597.85
2023-04-26T06:09:01.835Z,98596.52
2023-04-26T06:11:31.455Z,98597.14
2023-04-26T06:14:00.211Z,98598.33
2023-04-26T06:16:28.844Z,98602.54
2023-04-26T06:18:57.480Z,98604.61
2023-04-26T06:21:26.871Z,98602.20
2023-04-26T06:23:55.670Z,98611.20
2023-04-26T06:26:25.881Z,98612.17
2023-04-26T06:28:54.658Z,98610.23
2023-04-26T06:31:23.224Z,98608.15
2023-04-26T06:33:52.750Z,98611.13
2023-04-26T06:36:22.025Z,98608.47
2023-04-26T06:38:50.538Z,98607.91
2023-04-26T06:41:19.781Z,98611.26
2023-04-26T06:43:50.598Z,98610.14
2023-04-26T06:46:23.772Z,98611.56
2023-04-26T06:48:56.752Z,98614.48
2023-04-26T06:51:27.237Z,98617.62
2023-04-26T06:53:59.536Z,98618.45
2023-04-26T06:56:28.560Z,98618.74
2023-04-26T06:59:02.983Z,98623.20
2023-04-26T07:01:34.378Z,98628.77
2023-04-26T07:04:05.130Z,98630.95
2023-04-26T07:06:34.714Z,98631.29
2023-04-26T07:09:04.738Z,98633.46
2023-04-26T07:11:33.390Z,98631.42
2023-04-26T07:14:02.398Z,98629.70
2023-04-26T07:16:30.973Z,98632.15
2023-04-26T07:18:59.868Z,98632.86
2023-04-26T07:21:28.530Z,98634.73
2023-04-26T07:23:57.163Z,98641.41
2023-04-26T07:26:30.516Z,98639.20
2023-04-26T07:29:00.282Z,98636.98
2023-04-26T07:31:28.723Z,98642.23
2023-04-26T07:33:57.731Z,98642.11
2023-04-26T07:36:28.181Z,98651.47
2023-04-26T07:38:56.707Z,98645.21
2023-04-26T07:41:25.784Z,98645.36
2023-04-26T07:43:54.940Z,98642.71
2023-04-26T07:46:23.794Z,98638.42
2023-04-26T07:48:52.459Z,98643.84
2023-04-26T07:51:21.301Z,98648.23
2023-04-26T07:53:49.905Z,98643.88
2023-04-26T07:56:18.657Z,98636.03
2023-04-26T07:58:48.701Z,98636.79
2023-04-26T08:01:21.032Z,98642.38
2023-04-26T08:03:50.249Z,98642.30
2023-04-26T08:06:20.268Z,98637.16
2023-04-26T08:08:51.148Z,98639.49
2023-04-26T08:11:19.863Z,98640.42
2023-04-26T08:13:48.483Z,98640.14
2023-04-26T08:16:17.200Z,98640.56
2023-04-26T08:18:46.888Z,98645.52
2023-04-26T08:21:15.664Z,98648.46
2023-04-26T08:23:45.074Z,98653.91
2023-04-26T08:26:13.686Z,98653.23
2023-04-26T08:28:42.188Z,98650.14
2023-04-26T08:31:11.313Z,98640.17
2023-04-26T08:33:39.882Z,98640.05
2023-04-26T08:36:08.526Z,98642.81
2023-04-26T08:38:37.446Z,98649.98
2023-04-26T08:41:08.566Z,98647.60
2023-04-26T08:43:38.930Z,98653.13
2023-04-26T08:46:09.663Z,98652.67
2023-04-26T08:48:38.260Z,98651.30
2023-04-26T08:51:12.588Z,98647.83
2023-04-26T08:53:42.218Z,98658.48
2023-04-26T08:56:12.690Z,98656.09
2023-04-26T08:58:41.414Z,98652.52
2023-04-26T09:01:10.896Z,98647.73
2023-04-26T09:03:39.871Z,98648.79
2023-04-26T09:06:08.777Z,98652.63
2023-04-26T09:08:42.451Z,98655.29
2023-04-26T09:11:11.054Z,98651.95
2023-04-26T09:13:40.213Z,98649.57
2023-04-26T09:16:09.268Z,98655.92
2023-04-26T09:18:50.847Z,98657.16
2023-04-26T09:21:20.670Z,98654.84
2023-04-26T09:24:05.072Z,98657.28
2023-04-26T09:26:33.942Z,98659.61
2023-04-26T09:29:17.521Z,98659.28
2023-04-26T09:31:51.075Z,98661.52
2023-04-26T09:34:19.957Z,98659.11
2023-04-26T09:36:52.149Z,98662.27
2023-04-26T09:39:49.923Z,98661.25
2023-04-26T09:42:19.682Z,98659.05
2023-04-26T09:44:48.271Z,98653.89
2023-04-26T09:47:17.063Z,98660.77
2023-04-26T09:49:49.210Z,98659.23
2023-04-26T09:52:19.562Z,98663.29
2023-04-26T09:54:53.609Z,98657.18
2023-04-26T09:57:23.981Z,98657.36
2023-04-26T09:59:55.704Z,98653.20
2023-04-26T10:02:27.860Z,98653.45
2023-04-26T10:04:57.729Z,98656.15
2023-04-26T10:07:26.862Z,98661.02
2023-04-26T10:09:57.589Z,98659.30
2023-04-26T10:12:26.978Z,98657.85
2023-04-26T10:14:57.936Z,98651.22
2023-04-26T10:17:27.343Z,98650.48
2023-04-26T10:19:59.612Z,98655.67
2023-04-26T10:22:31.289Z,98655.34
2023-04-26T10:25:00.504Z,98658.98
2023-04-26T10:27:44.666Z,98666.21
2023-04-26T10:30:20.862Z,98668.52
2023-04-26T10:32:56.090Z,98667.86
2023-04-26T10:35:26.715Z,98668.80
2023-04-26T10:38:08.159Z,98671.45
2023-04-26T10:40:41.218Z,98658.13
2023-04-26T10:43:14.545Z,98655.45
2023-04-26T10:45:45.568Z,98653.39
2023-04-26T10:48:19.296Z,98658.39
2023-04-26T10:51:06.202Z,98653.88
2023-04-26T10:53:45.643Z,98652.80
2023-04-26T10:56:26.262Z,98649.00
2023-04-26T11:01:53.142Z,98665.55
2023-04-26T11:04:22.860Z,98676.37
2023-04-26T11:06:56.463Z,98670.44
2023-04-26T11:09:42.375Z,98673.53
2023-04-26T11:12:15.296Z,98675.43
2023-04-26T11:14:50.228Z,98676.78
2023-04-26T11:17:18.910Z,98673.77
2023-04-26T11:19:48.087Z,98667.16
2023-04-26T11:22:17.360Z,98668.17
2023-04-26T11:24:46.057Z,98665.91
2023-04-26T11:27:15.064Z,98660.91
2023-04-26T11:29:44.777Z,98657.87
2023-04-26T11:32:14.726Z,98660.67
2023-04-26T11:34:44.380Z,98657.72
2023-04-26T11:37:13.045Z,98651.98
2023-04-26T11:39:41.587Z,98651.64
2023-04-26T11:42:13.667Z,98656.86
2023-04-26T11:44:42.143Z,98658.61
2023-04-26T11:47:11.054Z,98656.54
2023-04-26T11:49:40.587Z,98661.08
2023-04-26T11:52:10.123Z,98661.06
2023-04-26T11:54:39.037Z,98668.34
2023-04-26T11:57:17.210Z,98672.34
2023-04-26T11:59:47.190Z,98678.60
2023-04-26T12:02:16.272Z,98678.41
2023-04-26T12:04:45.339Z,98672.14
2023-04-26T12:07:19.233Z,98669.90
2023-04-26T12:09:47.805Z,98669.56
2023-04-26T12:12:16.500Z,98671.84
2023-04-26T12:14:47.544Z,98668.33
2023-04-26T12:17:16.270Z,98667.10
2023-04-26T12:19:45.226Z,98676.34
2023-04-26T12:22:22.540Z,98673.04
2023-04-26T12:25:05.535Z,98661.88
2023-04-26T12:27:34.607Z,98653.81
2023-04-26T12:30:03.239Z,98658.96
2023-04-26T12:32:31.987Z,98661.39
2023-04-26T12:35:01.652Z,98674.33
2023-04-26T12:37:30.122Z,98682.73
2023-04-26T12:39:58.642Z,98682.61
2023-04-26T12:42:27.543Z,98685.02
2023-04-26T12:44:56.401Z,98682.91
2023-04-26T12:47:25.292Z,98680.98
2023-04-26T12:49:54.647Z,98676.79
2023-04-26T12:52:23.578Z,98673.67
2023-04-26T12:54:52.106Z,98673.65
2023-04-26T12:57:22.208Z,98675.06
2023-04-26T12:59:50.700Z,98672.67
2023-04-26T13:02:19.318Z,98676.51
2023-04-26T13:04:48.701Z,98679.11
2023-04-26T13:07:17.631Z,98682.75
2023-04-26T13:09:46.208Z,98686.57
2023-04-26T13:12:16.132Z,98692.09
2023-04-26T13:14:44.689Z,98688.54
2023-04-26T13:17:13.218Z,98692.11
2023-04-26T13:19:42.105Z,98693.48
2023-04-26T13:22:11.864Z,98689.14
2023-04-26T13:24:40.430Z,98687.13
2023-04-26T13:27:09.413Z,98683.88
2023-04-26T13:29:38.125Z,98682.15
2023-04-26T13:32:07.298Z,98683.55
2023-04-26T13:34:36.303Z,98684.95
2023-04-26T13:37:04.787Z,98684.44
2023-04-26T13:39:33.357Z,98684.80
2023-04-26T13:42:02.748Z,98677.35
2023-04-26T13:44:31.511Z,98678.23
2023-04-26T13:47:01.074Z,98684.17
2023-04-26T13:49:30.938Z,98684.87
2023-04-26T13:51:59.792Z,98685.39
2023-04-26T13:54:28.328Z,98688.52
2023-04-26T13:56:57.418Z,98689.70
2023-04-26T13:59:26.999Z,98687.44
2023-04-26T14:01:59.097Z,98692.66
2023-04-26T14:04:28.381Z,98692.66
2023-04-26T14:06:57.392Z,98694.75
2023-04-26T14:09:26.026Z,98697.17
2023-04-26T14:12:07.268Z,98699.05
2023-04-26T14:14:37.432Z,98703.73
2023-04-26T14:17:05.956Z,98709.55
2023-04-26T14:19:34.535Z,98710.14
2023-04-26T14:22:03.853Z,98712.12
2023-04-26T14:24:32.383Z,98711.16
2023-04-26T14:27:05.416Z,98708.83
2023-04-26T14:29:34.607Z,98709.38
2023-04-26T14:32:03.402Z,98709.25
2023-04-26T14:34:33.141Z,98706.83
2023-04-26T14:37:04.322Z,98709.89
2023-04-26T14:39:32.740Z,98714.09
2023-04-26T14:42:02.004Z,98713.35
2023-04-26T14:44:30.985Z,98711.69
2023-04-26T14:46:59.858Z,98708.39
2023-04-26T14:49:28.436Z,98704.42
2023-04-26T14:51:57.605Z,98701.55
2023-04-26T14:54:26.266Z,98699.81
2023-04-26T14:56:54.713Z,98704.07
2023-04-26T14:59:23.537Z,98706.04
2023-04-26T15:01:53.590Z,98704.83
2023-04-26T15:04:22.253Z,98709.30
2023-04-26T15:06:51.244Z,98715.16
2023-04-26T15:09:19.759Z,98724.30
2023-04-26T15:11:48.910Z,98726.30
2023-04-26T15:14:17.791Z,98728.39
2023-04-26T15:16:46.263Z,98731.40
2023-04-26T15:19:14.773Z,98729.73
2023-04-26T15:21:43.552Z,98727.57
2023-04-26T15:24:12.053Z,98732.10
2023-04-26T15:26:40.787Z,98729.45
2023-04-26T15:29:09.581Z,98721.42
2023-04-26T15:31:38.052Z,98720.77
2023-04-26T15:34:10.060Z,98720.39
2023-04-26T15:36:41.546Z,98718.70
2023-04-26T15:39:10.276Z,98719.44
2023-04-26T15:41:42.781Z,98719.61
2023-04-26T15:44:15.339Z,98724.46
2023-04-26T15:46:55.526Z,98729.98
2023-04-26T15:49:44.562Z,98741.14
2023-04-26T15:52:14.756Z,98746.98
2023-04-26T15:54:43.716Z,98744.47
2023-04-26T15:57:12.683Z,98743.02
2023-04-26T15:59:41.765Z,98741.30
2023-04-26T16:02:10.256Z,98739.30
2023-04-26T16:04:39.182Z,98742.50
2023-04-26T16:07:08.403Z,98738.75
2023-04-26T16:09:37.519Z,98740.98
2023-04-26T16:12:06.658Z,98737.42
2023-04-26T16:14:38.160Z,98737.79
2023-04-26T16:17:06.999Z,98739.85
2023-04-26T16:19:35.634Z,98740.60
2023-04-26T16:22:04.933Z,98739.45
2023-04-26T16:24:33.582Z,98740.85
2023-04-26T16:27:02.211Z,98740.81
2023-04-26T16:29:31.330Z,98743.55
2023-04-26T16:32:00.044Z,98743.00
2023-04-26T16:34:28.730Z,98749.73
2023-04-26T16:36:58.022Z,98752.48
2023-04-26T16:39:28.525Z,98755.07
2023-04-26T16:41:57.814Z,98754.87
2023-04-26T16:44:27.025Z,98759.44
2023-04-26T16:46:56.304Z,98763.84
2023-04-26T16:49:24.884Z,98765.29
2023-04-26T16:51:59.215Z,98762.14
2023-04-26T16:54:28.974Z,98765.77
2023-04-26T16:56:58.591Z,98779.91
2023-04-26T16:59:27.962Z,98778.66
2023-04-26T17:01:56.691Z,98784.73
2023-04-26T17:04:43.383Z,98784.13
2023-04-26T17:07:28.304Z,98786.13
2023-04-26T17:10:24.519Z,98790.04
2023-04-26T17:13:15.209Z,98793.48
2023-04-26T17:16:04.932Z,98795.21
2023-04-26T17:18:49.543Z,98796.14
2023-04-26T17:21:34.464Z,98796.29
2023-04-26T17:24:26.343Z,98800.04
2023-04-26T17:27:19.027Z,98804.04
2023-04-26T17:30:04.168Z,98805.01
2023-04-26T17:32:51.107Z,98810.28
2023-04-26T17:35:36.550Z,98807.19
2023-04-26T17:38:25.974Z,98808.09
2023-04-26T17:41:18.532Z,98808.93
2023-04-26T17:43:55.235Z,98806.67
2023-04-26T17:46:24.293Z,98806.92
2023-04-26T17:48:53.784Z,98808.54
2023-04-26T17:51:23.009Z,98809.91
2023-04-26T17:53:51.774Z,98809.74
2023-04-26T17:56:20.473Z,98810.30
2023-04-26T17:58:49.596Z,98809.84
2023-04-26T18:01:18.294Z,98813.67
2023-04-26T18:03:46.965Z,98816.80
2023-04-26T18:06:18.682Z,98816.55
2023-04-26T18:08:47.399Z,98815.08
2023-04-26T18:11:16.302Z,98813.64
2023-04-26T18:13:45.044Z,98816.74
2023-04-26T18:16:14.957Z,98816.44
2023-04-26T18:18:44.389Z,98819.92
2023-04-26T18:21:13.351Z,98820.30
2023-04-26T18:23:42.606Z,98823.60
2023-04-26T18:26:11.369Z,98825.22
2023-04-26T18:28:40.132Z,98823.73
2023-04-26T18:31:08.589Z,98828.99
2023-04-26T18:33:37.327Z,98827.78
2023-04-26T18:36:06.933Z,98835.38
2023-04-26T18:38:35.342Z,98832.42
2023-04-26T18:41:03.925Z,98837.13
2023-04-26T18:43:32.661Z,98839.02
2023-04-26T18:46:01.878Z,98841.79
2023-04-26T18:48:31.113Z,98843.73
2023-04-26T18:50:59.977Z,98845.98
2023-04-26T18:53:29.131Z,98844.54
2023-04-26T18:55:57.644Z,98847.33
2023-04-26T18:58:26.726Z,98851.09
2023-04-26T19:00:55.962Z,98849.14
2023-04-26T19:03:25.255Z,98854.88
2023-04-26T19:05:54.455Z,98855.44
2023-04-26T19:08:24.956Z,98858.79
2023-04-26T19:10:53.459Z,98863.39
2023-04-26T19:13:22.496Z,98863.06
2023-04-26T19:15:51.327Z,98866.91
2023-04-26T19:18:19.847Z,98866.48
2023-04-26T19:20:49.582Z,98867.19
2023-04-26T19:23:18.910Z,98869.23
2023-04-26T19:25:47.535Z,98866.77
2023-04-26T19:28:16.723Z,98869.48
2023-04-26T19:30:45.646Z,98868.08
2023-04-26T19:33:14.232Z,98866.63
2023-04-26T19:35:42.789Z,98867.80
2023-04-26T19:38:11.740Z,98871.86
2023-04-26T19:40:40.197Z,98870.52
2023-04-26T19:43:09.032Z,98871.05
2023-04-26T19:45:39.578Z,98869.91
2023-04-26T19:48:14.219Z,98871.44
2023-04-26T19:50:45.240Z,98874.20
2023-04-26T19:53:15.493Z,98876.16
2023-04-26T19:55:44.200Z,98875.27
2023-04-26T19:58:12.802Z,98873.68
2023-04-26T20:00:41.864Z,98876.89
2023-04-26T20:03:11.294Z,98876.30
2023-04-26T20:05:40.802Z,98876.59
2023-04-26T20:08:09.486Z,98877.95
2023-04-26T20:10:38.492Z,98881.20
2023-04-26T20:13:07.433Z,98882.77
2023-04-26T20:15:36.630Z,98885.98
2023-04-26T20:18:05.322Z,98886.27
2023-04-26T20:20:33.819Z,98882.69
2023-04-26T20:23:03.938Z,98883.98
2023-04-26T20:25:32.624Z,98884.68
2023-04-26T20:28:02.528Z,98881.72
2023-04-26T20:30:34.403Z,98880.72
2023-04-26T20:33:04.750Z,98882.15
2023-04-26T20:35:33.389Z,98886.60
2023-04-26T20:38:02.652Z,98889.06
2023-04-26T20:40:31.121Z,98888.42
2023-04-26T20:43:00.060Z,98888.96
2023-04-26T20:45:28.830Z,98891.42
2023-04-26T20:47:57.329Z,98887.36
2023-04-26T20:50:26.107Z,98892.36
2023-04-26T20:52:55.335Z,98896.08
2023-04-26T20:55:23.821Z,98895.52
2023-04-26T20:57:52.506Z,98895.91
2023-04-26T21:00:21.583Z,98892.11
2023-04-26T21:02:50.605Z,98898.78
2023-04-26T21:05:19.461Z,98897.39
2023-04-26T21:07:48.190Z,98902.08
2023-04-26T21:10:16.679Z,98902.27
2023-04-26T21:12:45.265Z,98901.77
2023-04-26T21:15:13.917Z,98903.68
2023-04-26T21:17:42.489Z,98904.80
2023-04-26T21:20:11.742Z,98901.55
2023-04-26T21:22:40.587Z,98906.09
2023-04-26T21:25:09.565Z,98906.55
2023-04-26T21:27:38.016Z,98905.05
2023-04-26T21:30:08.170Z,98908.52
2023-04-26T21:32:37.883Z,98911.88
2023-04-26T21:35:07.909Z,98912.87
2023-04-26T21:37:37.626Z,98914.13
2023-04-26T21:40:07.280Z,98914.21
2023-04-26T21:42:35.747Z,98915.48
2023-04-26T21:45:05.208Z,98916.98
2023-04-26T21:47:33.802Z,98913.11
2023-04-26T21:50:02.306Z,98914.39
2023-04-26T21:52:31.975Z,98919.05
2023-04-26T21:55:00.659Z,98921.05
2023-04-26T21:57:29.110Z,98923.92
2023-04-26T21:59:58.898Z,98921.75
2023-04-26T22:02:27.616Z,98923.67
2023-04-26T22:04:57.159Z,98924.82
2023-04-26T22:08:01.920Z,98929.08
2023-04-26T22:10:30.465Z,98931.38
2023-04-26T22:12:59.334Z,98930.13
2023-04-26T22:15:28.194Z,98933.58
2023-04-26T22:17:56.722Z,98935.28
2023-04-26T22:20:26.048Z,98934.58
2023-04-26T22:22:55.335Z,98933.83
2023-04-26T22:25:24.703Z,98933.27
2023-04-26T22:27:53.783Z,98931.74
2023-04-26T22:30:25.935Z,98933.97
2023-04-26T22:32:55.819Z,98935.08
2023-04-26T22:35:25.804Z,98935.73
2023-04-26T22:37:54.879Z,98935.56
2023-04-26T22:40:23.444Z,98937.09
2023-04-26T22:42:52.512Z,98939.84
2023-04-26T22:45:21.033Z,98936.09
2023-04-26T22:47:50.345Z,98936.95
2023-04-26T22:50:19.187Z,98941.94
2023-04-26T22:52:47.613Z,98941.44
2023-04-26T22:55:16.514Z,98943.16
2023-04-26T22:57:46.993Z,98943.52
2023-04-26T23:00:16.263Z,98942.61
2023-04-26T23:02:44.886Z,98942.51
2023-04-26T23:05:14.228Z,98946.32
2023-04-26T23:07:42.885Z,98943.69
2023-04-26T23:10:11.910Z,98947.35
2023-04-26T23:12:41.817Z,98946.32
2023-04-26T23:15:10.820Z,98947.59
2023-04-26T23:17:41.969Z,98946.16
2023-04-26T23:20:14.187Z,98954.00
2023-04-26T23:22:43.600Z,98953.41
2023-04-26T23:25:12.329Z,98950.23
2023-04-26T23:27:41.545Z,98953.26
2023-04-26T23:30:10.338Z,98951.80
2023-04-26T23:32:38.961Z,98958.42
2023-04-26T23:35:08.631Z,98951.92
2023-04-26T23:37:37.821Z,98954.84
2023-04-26T23:40:07.225Z,98957.05
2023-04-26T23:42:37.419Z,98959.65
2023-04-26T23:45:08.018Z,98960.84
2023-04-26T23:47:36.582Z,98955.80
2023-04-26T23:50:06.041Z,98954.08
2023-04-26T23:52:34.848Z,98957.96
2023-04-26T23:55:03.752Z,98958.80
2023-04-26T23:57:32.847Z,98956.56
